createdAt,value
2018-08-18T00:00:20.466Z,99203.93
2018-08-18T00:02:48.824Z,99204.52
2018-08-18T00:05:17.984Z,99201.92
2018-08-18T00:07:46.358Z,99207.64
2018-08-18T00:10:17.498Z,99208.34
2018-08-18T00:12:45.786Z,99209.88
2018-08-18T00:15:14.092Z,99212.84
2018-08-18T00:17:42.429Z,99215.34
2018-08-18T00:20:14.106Z,99208.67
2018-08-18T00:22:42.404Z,99213.93
2018-08-18T00:25:10.680Z,99214.45
2018-08-18T00:27:39.023Z,99216.77
2018-08-18T00:30:14.461Z,99219.28
2018-08-18T00:32:42.731Z,99212.98
2018-08-18T00:35:11.337Z,99214.29
2018-08-18T00:37:39.638Z,99214.55
2018-08-18T00:40:09.030Z,99216.69
2018-08-18T00:42:37.530Z,99214.07
2018-08-18T00:45:07.339Z,99217.03
2018-08-18T00:47:35.650Z,99224.64
2018-08-18T00:50:04.300Z,99224.64
2018-08-18T00:52:32.678Z,99226.79
2018-08-18T00:55:00.994Z,99229.89
2018-08-18T00:57:30.393Z,99230.08
2018-08-18T01:00:06.402Z,99234.47
2018-08-18T01:02:34.790Z,99232.86
2018-08-18T01:05:03.411Z,99235.05
2018-08-18T01:07:32.691Z,99230.78
2018-08-18T01:10:01.408Z,99233.00
2018-08-18T01:12:29.872Z,99227.63
2018-08-18T01:14:58.532Z,99226.98
2018-08-18T01:17:26.959Z,99225.30
2018-08-18T01:19:56.770Z,99228.58
2018-08-18T01:22:25.074Z,99230.08
2018-08-18T01:24:53.786Z,99228.00
2018-08-18T01:27:22.458Z,99225.25
2018-08-18T01:30:00.817Z,99227.81
2018-08-18T01:32:31.015Z,99230.30
2018-08-18T01:34:59.305Z,99228.80
2018-08-18T01:37:27.626Z,99236.55
2018-08-18T01:39:56.201Z,99238.52
2018-08-18T01:42:24.553Z,99234.20
2018-08-18T01:44:53.989Z,99234.91
2018-08-18T01:47:22.311Z,99240.09
2018-08-18T01:49:50.697Z,99241.66
2018-08-18T01:52:22.275Z,99237.94
2018-08-18T01:54:50.607Z,99238.27
2018-08-18T01:57:19.423Z,99249.26
2018-08-18T01:59:48.176Z,99252.11
2018-08-18T02:02:18.043Z,99245.83
2018-08-18T02:04:46.890Z,99248.51
2018-08-18T02:07:25.464Z,99247.64
2018-08-18T02:09:54.116Z,99243.70
2018-08-18T02:12:22.750Z,99248.09
2018-08-18T02:14:51.119Z,99244.78
2018-08-18T02:17:30.155Z,99245.16
2018-08-18T02:19:58.875Z,99243.81
2018-08-18T02:22:27.854Z,99241.95
2018-08-18T02:24:56.348Z,99244.97
2018-08-18T02:27:24.681Z,99239.23
2018-08-18T02:30:05.072Z,99236.07
2018-08-18T02:32:35.651Z,99232.84
2018-08-18T02:35:04.477Z,99231.83
2018-08-18T02:37:32.762Z,99238.83
2018-08-18T02:40:01.148Z,99237.81
2018-08-18T02:42:29.439Z,99235.16
2018-08-18T02:44:57.706Z,99233.07
2018-08-18T02:47:26.061Z,99234.08
2018-08-18T02:49:55.435Z,99236.64
2018-08-18T02:52:26.798Z,99239.93
2018-08-18T02:54:58.897Z,99238.55
2018-08-18T02:57:35.846Z,99241.81
2018-08-18T03:00:06.336Z,99237.42
2018-08-18T03:02:34.843Z,99230.89
2018-08-18T03:05:03.173Z,99230.83
2018-08-18T03:07:38.125Z,99243.79
2018-08-18T03:10:15.787Z,99248.58
2018-08-18T03:12:44.160Z,99241.98
2018-08-18T03:15:16.416Z,99240.62
2018-08-18T03:17:44.782Z,99233.20
2018-08-18T03:20:13.086Z,99236.34
2018-08-18T03:22:41.739Z,99245.09
2018-08-18T03:25:10.182Z,99246.78
2018-08-18T03:27:38.501Z,99248.95
2018-08-18T03:30:06.918Z,99248.00
2018-08-18T03:32:35.197Z,99253.67
2018-08-18T03:35:03.506Z,99257.73
2018-08-18T03:37:32.357Z,99258.41
2018-08-18T03:40:00.760Z,99257.86
2018-08-18T03:42:34.453Z,99257.00
2018-08-18T03:45:03.485Z,99252.26
2018-08-18T03:47:31.771Z,99257.66
2018-08-18T03:50:00.135Z,99254.80
2018-08-18T03:52:28.478Z,99251.99
2018-08-18T03:54:56.750Z,99248.22
2018-08-18T03:57:30.595Z,99259.09
2018-08-18T03:59:59.039Z,99251.28
2018-08-18T04:02:27.399Z,99254.91
2018-08-18T04:04:59.874Z,99256.95
2018-08-18T04:07:28.226Z,99259.92
2018-08-18T04:10:00.269Z,99265.80
2018-08-18T04:12:28.572Z,99264.72
2018-08-18T04:14:56.876Z,99274.23
2018-08-18T04:17:31.336Z,99274.30
2018-08-18T04:19:59.593Z,99276.62
2018-08-18T04:22:27.940Z,99282.35
2018-08-18T04:24:57.256Z,99279.11
2018-08-18T04:27:36.910Z,99280.14
2018-08-18T04:30:07.758Z,99291.09
2018-08-18T04:32:55.643Z,99290.81
2018-08-18T04:35:25.084Z,99294.50
2018-08-18T04:37:54.356Z,99289.44
2018-08-18T04:40:23.288Z,99290.45
2018-08-18T04:42:51.669Z,99292.50
2018-08-18T04:45:22.112Z,99297.88
2018-08-18T04:47:50.493Z,99293.98
2018-08-18T04:50:18.903Z,99291.09
2018-08-18T04:52:47.268Z,99295.81
2018-08-18T04:55:16.002Z,99296.75
2018-08-18T04:57:44.673Z,99298.23
2018-08-18T05:00:14.102Z,99292.81
2018-08-18T05:02:47.885Z,99292.80
2018-08-18T05:05:16.928Z,99299.18
2018-08-18T05:07:48.163Z,99308.53
2018-08-18T05:10:18.144Z,99305.63
2018-08-18T05:12:46.573Z,99305.63
2018-08-18T05:15:15.538Z,99310.04
2018-08-18T05:17:43.935Z,99312.02
2018-08-18T05:20:16.811Z,99306.95
2018-08-18T05:22:48.811Z,99305.80
2018-08-18T05:25:18.492Z,99311.00
2018-08-18T05:27:47.556Z,99318.78
2018-08-18T05:30:16.097Z,99317.69
2018-08-18T05:32:44.513Z,99312.80
2018-08-18T05:35:13.171Z,99323.77
2018-08-18T05:37:41.530Z,99318.87
2018-08-18T05:40:10.023Z,99322.41
2018-08-18T05:42:38.327Z,99316.26
2018-08-18T05:45:21.263Z,99314.27
2018-08-18T05:47:50.019Z,99316.92
2018-08-18T05:50:18.422Z,99319.11
2018-08-18T05:52:46.765Z,99316.28
2018-08-18T05:55:15.100Z,99316.16
2018-08-18T05:57:43.436Z,99324.06
2018-08-18T06:00:24.028Z,99315.84
2018-08-18T06:02:58.593Z,99315.84
2018-08-18T06:05:29.639Z,99314.16
2018-08-18T06:07:58.344Z,99319.28
2018-08-18T06:10:26.719Z,99315.29
2018-08-18T06:12:55.128Z,99320.41
2018-08-18T06:15:23.839Z,99319.62
2018-08-18T06:17:52.203Z,99320.80
2018-08-18T06:20:20.599Z,99323.41
2018-08-18T06:22:48.885Z,99324.06
2018-08-18T06:25:17.180Z,99324.05
2018-08-18T06:27:45.555Z,99314.17
2018-08-18T06:30:13.848Z,99321.41
2018-08-18T06:32:42.363Z,99316.92
2018-08-18T06:35:11.158Z,99325.85
2018-08-18T06:37:41.154Z,99324.63
2018-08-18T06:40:09.668Z,99328.04
2018-08-18T06:42:41.777Z,99322.72
2018-08-18T06:45:12.237Z,99327.49
2018-08-18T06:47:41.035Z,99329.94
2018-08-18T06:50:11.626Z,99324.78
2018-08-18T06:52:40.262Z,99318.84
2018-08-18T06:55:11.586Z,99333.29
2018-08-18T06:57:47.192Z,99331.13
2018-08-18T07:00:17.330Z,99333.62
2018-08-18T07:02:45.675Z,99332.08
2018-08-18T07:05:15.526Z,99329.69
2018-08-18T07:07:44.856Z,99336.60
2018-08-18T07:10:25.801Z,99350.34
2018-08-18T07:12:55.296Z,99341.56
2018-08-18T07:15:25.138Z,99346.79
2018-08-18T07:17:53.909Z,99347.94
2018-08-18T07:20:22.783Z,99347.70
2018-08-18T07:22:51.794Z,99351.81
2018-08-18T07:25:20.349Z,99344.25
2018-08-18T07:28:52.186Z,99342.25
2018-08-18T07:31:20.550Z,99345.80
2018-08-18T07:33:48.986Z,99350.01
2018-08-18T07:36:17.314Z,99354.23
2018-08-18T07:38:45.592Z,99343.80
2018-08-18T07:41:14.072Z,99345.61
2018-08-18T07:43:42.699Z,99348.80
2018-08-18T07:46:11.213Z,99352.42
2018-08-18T07:48:39.459Z,99351.91
2018-08-18T07:51:07.805Z,99353.04
2018-08-18T07:53:36.286Z,99354.67
2018-08-18T07:56:04.680Z,99354.23
2018-08-18T07:58:33.029Z,99359.98
2018-08-18T08:01:01.470Z,99358.36
2018-08-18T08:03:29.768Z,99352.11
2018-08-18T08:05:58.135Z,99359.98
2018-08-18T08:08:34.120Z,99362.54
2018-08-18T08:11:07.781Z,99363.25
2018-08-18T08:13:36.156Z,99367.00
2018-08-18T08:16:04.561Z,99362.90
2018-08-18T08:18:32.944Z,99365.91
2018-08-18T08:21:01.292Z,99365.41
2018-08-18T08:23:29.660Z,99363.16
2018-08-18T08:25:58.981Z,99371.13
2018-08-18T08:28:27.295Z,99366.92
2018-08-18T08:30:55.618Z,99379.91
2018-08-18T08:33:34.385Z,99372.05
2018-08-18T08:36:03.454Z,99378.28
2018-08-18T08:38:43.190Z,99373.25
2018-08-18T08:41:12.526Z,99371.62
2018-08-18T08:43:40.922Z,99376.17
2018-08-18T08:46:09.286Z,99372.94
2018-08-18T08:48:37.583Z,99371.33
2018-08-18T08:51:06.028Z,99361.33
2018-08-18T08:53:34.616Z,99363.66
2018-08-18T08:56:03.116Z,99360.80
2018-08-18T08:58:31.856Z,99364.98
2018-08-18T09:01:00.264Z,99354.47
2018-08-18T09:03:28.710Z,99362.38
2018-08-18T09:05:57.784Z,99365.02
2018-08-18T09:08:26.118Z,99365.66
2018-08-18T09:10:54.427Z,99362.84
2018-08-18T09:13:22.773Z,99363.10
2018-08-18T09:15:51.130Z,99367.81
2018-08-18T09:18:19.938Z,99366.63
2018-08-18T09:20:48.269Z,99372.53
2018-08-18T09:23:16.574Z,99365.64
2018-08-18T09:25:44.891Z,99365.35
2018-08-18T09:28:13.195Z,99356.23
2018-08-18T09:30:41.496Z,99361.89
2018-08-18T09:33:09.794Z,99355.48
2018-08-18T09:35:54.456Z,99356.85
2018-08-18T09:38:22.924Z,99359.59
2018-08-18T09:40:51.347Z,99360.11
2018-08-18T09:43:24.814Z,99363.75
2018-08-18T09:45:54.444Z,99355.41
2018-08-18T09:48:23.519Z,99355.47
2018-08-18T09:50:52.003Z,99360.70
2018-08-18T09:53:20.351Z,99363.98
2018-08-18T09:55:48.826Z,99361.00
2018-08-18T09:58:17.681Z,99352.25
2018-08-18T10:00:46.054Z,99354.42
2018-08-18T10:03:14.458Z,99350.92
2018-08-18T10:05:42.840Z,99353.31
2018-08-18T10:08:11.147Z,99350.02
2018-08-18T10:10:39.454Z,99353.79
2018-08-18T10:13:07.869Z,99359.13
2018-08-18T10:15:36.410Z,99349.75
2018-08-18T10:18:04.832Z,99354.94
2018-08-18T10:20:41.266Z,99353.63
2018-08-18T10:23:10.507Z,99352.11
2018-08-18T10:25:38.792Z,99354.25
2018-08-18T10:28:17.812Z,99354.52
2018-08-18T10:30:46.114Z,99358.93
2018-08-18T10:33:14.554Z,99348.56
2018-08-18T10:35:43.802Z,99341.63
2018-08-18T10:38:12.231Z,99345.61
2018-08-18T10:40:40.523Z,99353.79
2018-08-18T10:43:08.915Z,99341.63
2018-08-18T10:45:37.206Z,99334.08
2018-08-18T10:48:05.866Z,99327.87
2018-08-18T10:50:46.030Z,99321.81
2018-08-18T10:53:14.360Z,99323.06
2018-08-18T10:55:42.702Z,99323.80
2018-08-18T10:58:11.267Z,99319.50
2018-08-18T11:00:39.634Z,99326.73
2018-08-18T11:03:08.836Z,99325.55
2018-08-18T11:05:37.495Z,99319.69
2018-08-18T11:08:08.057Z,99317.92
2018-08-18T11:10:38.626Z,99317.27
2018-08-18T11:13:07.118Z,99328.30
2018-08-18T11:15:36.307Z,99322.31
2018-08-18T11:18:04.638Z,99324.52
2018-08-18T11:20:34.209Z,99322.23
2018-08-18T11:23:14.611Z,99327.77
2018-08-18T11:25:46.102Z,99331.01
2018-08-18T11:28:15.038Z,99332.34
2018-08-18T11:30:43.543Z,99334.08
2018-08-18T11:33:14.554Z,99335.02
2018-08-18T11:35:44.135Z,99327.12
2018-08-18T11:41:42.149Z,99318.58
2018-08-18T11:44:10.726Z,99321.13
2018-08-18T11:46:43.604Z,99323.42
2018-08-18T11:49:11.935Z,99311.28
2018-08-18T11:51:42.043Z,99316.41
2018-08-18T11:54:10.353Z,99308.98
2018-08-18T11:56:44.181Z,99312.36
2018-08-18T11:59:13.896Z,99310.69
2018-08-18T12:01:43.368Z,99305.77
2018-08-18T12:04:11.807Z,99304.22
2018-08-18T12:06:47.251Z,99303.25
2018-08-18T12:09:15.810Z,99308.85
2018-08-18T12:11:44.125Z,99297.75
2018-08-18T12:14:12.592Z,99297.89
2018-08-18T12:16:47.693Z,99292.64
2018-08-18T12:19:16.056Z,99288.41
2018-08-18T12:21:45.485Z,99293.03
2018-08-18T12:24:15.359Z,99290.83
2018-08-18T12:26:57.090Z,99284.75
2018-08-18T12:29:25.686Z,99302.20
2018-08-18T12:31:53.997Z,99291.23
2018-08-18T12:34:22.305Z,99296.47
2018-08-18T12:36:50.735Z,99289.95
2018-08-18T12:39:18.982Z,99273.98
2018-08-18T12:41:47.605Z,99277.56
2018-08-18T12:44:17.018Z,99266.97
2018-08-18T12:46:49.439Z,99264.24
2018-08-18T12:49:17.736Z,99262.04
2018-08-18T12:51:46.140Z,99259.91
2018-08-18T12:54:14.445Z,99255.20
2018-08-18T12:56:44.350Z,99257.86
2018-08-18T12:59:13.041Z,99258.73
2018-08-18T13:01:44.019Z,99253.89
2018-08-18T13:04:13.868Z,99249.48
2018-08-18T13:06:45.410Z,99255.30
2018-08-18T13:09:17.709Z,99252.11
2018-08-18T13:11:47.494Z,99250.09
2018-08-18T13:14:18.729Z,99242.75
2018-08-18T13:16:47.317Z,99235.74
2018-08-18T13:19:17.878Z,99242.70
2018-08-18T13:21:46.127Z,99241.05
2018-08-18T13:24:14.687Z,99235.33
2018-08-18T13:26:42.985Z,99239.30
2018-08-18T13:29:11.457Z,99228.88
2018-08-18T13:31:40.771Z,99224.75
2018-08-18T13:34:10.734Z,99224.70
2018-08-18T13:36:40.781Z,99215.78
2018-08-18T13:39:12.284Z,99212.05
2018-08-18T13:41:40.845Z,99211.67
2018-08-18T13:44:09.125Z,99210.84
2018-08-18T13:46:47.035Z,99213.19
2018-08-18T13:49:18.206Z,99213.64
2018-08-18T13:51:46.593Z,99211.09
2018-08-18T13:54:14.961Z,99207.73
2018-08-18T13:56:43.655Z,99207.52
2018-08-18T13:59:11.927Z,99207.83
2018-08-18T14:01:44.588Z,99205.77
2018-08-18T14:04:20.292Z,99196.28
2018-08-18T14:06:55.493Z,99185.99
2018-08-18T14:09:23.958Z,99187.61
2018-08-18T14:11:58.096Z,99186.30
2018-08-18T14:14:26.435Z,99183.52
2018-08-18T14:16:54.890Z,99186.22
2018-08-18T14:19:23.137Z,99186.30
2018-08-18T14:22:06.626Z,99183.09
2018-08-18T14:24:36.096Z,99187.81
2018-08-18T14:27:05.789Z,99184.44
2018-08-18T14:29:34.636Z,99186.44
2018-08-18T14:32:06.090Z,99187.74
2018-08-18T14:34:34.385Z,99184.73
2018-08-18T14:37:12.118Z,99184.84
2018-08-18T14:39:41.889Z,99187.67
2018-08-18T14:42:10.443Z,99194.95
2018-08-18T14:44:39.010Z,99191.58
2018-08-18T14:47:07.702Z,99188.41
2018-08-18T14:49:36.474Z,99191.61
2018-08-18T14:52:04.877Z,99186.70
2018-08-18T14:54:33.488Z,99188.11
2018-08-18T14:57:03.167Z,99183.27
2018-08-18T14:59:32.560Z,99189.98
2018-08-18T15:02:02.396Z,99189.34
2018-08-18T15:04:30.767Z,99182.83
2018-08-18T15:06:59.090Z,99175.73
2018-08-18T15:09:37.879Z,99179.93
2018-08-18T15:12:06.371Z,99182.12
2018-08-18T15:14:34.679Z,99179.55
2018-08-18T15:17:03.089Z,99171.78
2018-08-18T15:19:31.410Z,99176.09
2018-08-18T15:22:00.387Z,99172.81
2018-08-18T15:24:28.734Z,99171.33
2018-08-18T15:26:57.133Z,99167.51
2018-08-18T15:29:25.588Z,99160.73
2018-08-18T15:31:55.570Z,99168.81
2018-08-18T15:34:23.929Z,99164.23
2018-08-18T15:36:52.385Z,99157.20
2018-08-18T15:39:21.314Z,99163.81
2018-08-18T15:41:49.755Z,99161.84
2018-08-18T15:44:18.091Z,99160.20
2018-08-18T15:46:52.922Z,99158.95
2018-08-18T15:49:21.386Z,99150.27
2018-08-18T15:51:50.627Z,99154.92
2018-08-18T15:54:18.977Z,99147.68
2018-08-18T15:56:47.293Z,99151.12
2018-08-18T15:59:15.617Z,99145.95
2018-08-18T16:01:43.938Z,99149.64
2018-08-18T16:04:12.385Z,99152.83
2018-08-18T16:06:40.728Z,99149.05
2018-08-18T16:09:09.418Z,99155.16
2018-08-18T16:11:37.740Z,99149.19
2018-08-18T16:14:06.232Z,99147.69
2018-08-18T16:16:52.295Z,99148.01
2018-08-18T16:19:20.680Z,99137.91
2018-08-18T16:21:50.342Z,99134.30
2018-08-18T16:24:30.844Z,99135.90
2018-08-18T16:27:02.129Z,99135.37
2018-08-18T16:29:30.638Z,99142.78
2018-08-18T16:32:14.698Z,99140.78
2018-08-18T16:34:44.768Z,99140.17
2018-08-18T16:37:13.527Z,99139.66
2018-08-18T16:39:42.854Z,99139.19
2018-08-18T16:42:12.393Z,99140.56
2018-08-18T16:44:41.562Z,99137.34
2018-08-18T16:47:10.417Z,99146.48
2018-08-18T16:49:38.995Z,99142.18
2018-08-18T16:52:14.070Z,99143.16
2018-08-18T16:54:42.436Z,99142.48
2018-08-18T16:57:10.918Z,99144.20
2018-08-18T16:59:39.396Z,99146.50
2018-08-18T17:02:14.738Z,99144.51
2018-08-18T17:04:43.461Z,99152.95
2018-08-18T17:07:16.983Z,99152.48
2018-08-18T17:09:45.346Z,99152.88
2018-08-18T17:12:16.865Z,99151.66
2018-08-18T17:14:45.612Z,99160.14
2018-08-18T17:17:14.365Z,99156.99
2018-08-18T17:19:42.693Z,99162.87
2018-08-18T17:25:01.301Z,99163.82
2018-08-18T17:27:30.777Z,99161.39
2018-08-18T17:30:01.266Z,99163.81
2018-08-18T17:32:29.983Z,99163.59
2018-08-18T17:34:58.583Z,99174.55
2018-08-18T17:37:26.900Z,99175.88
2018-08-18T17:39:55.407Z,99171.21
2018-08-18T17:42:23.714Z,99177.32
2018-08-18T17:44:52.142Z,99172.27
2018-08-18T17:47:20.658Z,99178.27
2018-08-18T17:49:56.719Z,99183.46
2018-08-18T17:52:25.290Z,99192.44
2018-08-18T17:55:04.962Z,99193.09
2018-08-18T17:57:33.344Z,99194.92
2018-08-18T18:00:07.247Z,99198.08
2018-08-18T18:02:42.009Z,99205.45
2018-08-18T18:05:10.326Z,99201.69
2018-08-18T18:07:38.872Z,99205.97
2018-08-18T18:10:07.256Z,99210.91
2018-08-18T18:12:36.021Z,99215.91
2018-08-18T18:15:46.209Z,99220.39
2018-08-18T18:18:17.325Z,99220.63
2018-08-18T18:20:49.614Z,99226.77
2018-08-18T18:23:18.603Z,99228.03
2018-08-18T18:25:46.919Z,99233.78
2018-08-18T18:28:15.196Z,99237.52
2018-08-18T18:30:43.505Z,99236.81
2018-08-18T18:33:12.109Z,99236.86
2018-08-18T18:35:40.616Z,99242.47
2018-08-18T18:38:08.986Z,99241.19
2018-08-18T18:40:41.571Z,99245.05
2018-08-18T18:43:09.945Z,99248.58
2018-08-18T18:45:38.416Z,99250.20
2018-08-18T18:48:07.861Z,99250.67
2018-08-18T18:50:39.047Z,99253.08
2018-08-18T18:53:07.377Z,99253.92
2018-08-18T18:55:41.498Z,99248.00
2018-08-18T18:58:13.191Z,99254.25
2018-08-18T19:00:45.753Z,99259.13
2018-08-18T19:03:14.236Z,99261.77
2018-08-18T19:05:47.193Z,99268.34
2018-08-18T19:08:18.335Z,99269.92
2018-08-18T19:10:47.098Z,99265.62
2018-08-18T19:13:15.523Z,99270.56
2018-08-18T19:15:44.382Z,99273.78
2018-08-18T19:18:13.513Z,99278.81
2018-08-18T19:20:41.866Z,99282.63
2018-08-18T19:23:15.405Z,99283.23
2018-08-18T19:25:44.938Z,99285.12
2018-08-18T19:28:16.287Z,99290.35
2018-08-18T19:30:44.556Z,99288.41
2018-08-18T19:33:14.356Z,99295.17
2018-08-18T19:35:44.909Z,99296.22
2018-08-18T19:38:13.663Z,99293.24
2018-08-18T19:40:43.308Z,99297.89
2018-08-18T19:43:15.713Z,99294.72
2018-08-18T19:45:44.130Z,99298.23
2018-08-18T19:48:14.975Z,99295.69
2018-08-18T19:50:52.468Z,99300.28
2018-08-18T19:53:30.263Z,99302.05
2018-08-18T19:55:59.656Z,99307.23
2018-08-18T19:58:28.615Z,99305.05
2018-08-18T20:00:56.954Z,99310.80
2018-08-18T20:03:25.854Z,99311.69
2018-08-18T20:05:54.396Z,99314.33
2018-08-18T20:08:24.219Z,99307.02
2018-08-18T20:10:57.493Z,99319.19
2018-08-18T20:13:27.514Z,99322.61
2018-08-18T20:15:57.152Z,99315.95
2018-08-18T20:18:25.742Z,99322.31
2018-08-18T20:20:56.201Z,99324.70
2018-08-18T20:23:24.810Z,99325.23
2018-08-18T20:25:53.109Z,99318.59
2018-08-18T20:28:22.695Z,99320.91
2018-08-18T20:30:51.881Z,99323.54
2018-08-18T20:33:20.300Z,99325.42
2018-08-18T20:35:48.728Z,99326.55
2018-08-18T20:38:17.219Z,99325.09
2018-08-18T20:40:45.944Z,99322.45
2018-08-18T20:43:14.264Z,99332.78
2018-08-18T20:45:46.699Z,99337.55
2018-08-18T20:48:19.618Z,99337.51
2018-08-18T20:50:48.055Z,99339.94
2018-08-18T20:53:17.262Z,99343.94
2018-08-18T20:55:50.514Z,99344.14
2018-08-18T20:58:18.945Z,99345.51
2018-08-18T21:00:47.263Z,99350.55
2018-08-18T21:03:15.649Z,99349.47
2018-08-18T21:05:43.938Z,99352.36
2018-08-18T21:08:16.878Z,99347.58
2018-08-18T21:10:45.574Z,99353.33
2018-08-18T21:13:15.397Z,99354.37
2018-08-18T21:15:43.799Z,99357.54
2018-08-18T21:18:19.147Z,99361.06
2018-08-18T21:20:48.501Z,99359.29
2018-08-18T21:23:17.964Z,99356.72
2018-08-18T21:25:48.966Z,99362.64
2018-08-18T21:28:18.650Z,99367.76
2018-08-18T21:30:47.475Z,99366.26
2018-08-18T21:33:15.888Z,99367.63
2018-08-18T21:35:44.432Z,99370.15
2018-08-18T21:38:12.971Z,99374.53
2018-08-18T21:40:41.573Z,99367.22
2018-08-18T21:43:21.175Z,99379.88
2018-08-18T21:45:50.806Z,99382.05
2018-08-18T21:48:19.168Z,99382.92
2018-08-18T21:50:47.688Z,99380.04
2018-08-18T21:53:16.420Z,99379.55
2018-08-18T21:55:44.997Z,99381.66
2018-08-18T21:58:13.399Z,99381.01
2018-08-18T22:00:46.958Z,99381.67
2018-08-18T22:03:15.874Z,99378.48
2018-08-18T22:05:45.134Z,99387.08
2018-08-18T22:08:13.703Z,99381.55
2018-08-18T22:10:52.175Z,99379.97
2018-08-18T22:13:21.248Z,99379.50
2018-08-18T22:15:50.894Z,99384.41
2018-08-18T22:18:20.061Z,99378.34
2018-08-18T22:20:48.658Z,99376.31
2018-08-18T22:23:17.242Z,99383.69
2018-08-18T22:25:46.117Z,99381.63
2018-08-18T22:28:14.602Z,99385.67
2018-08-18T22:30:43.570Z,99388.41
2018-08-18T22:33:12.283Z,99387.36
2018-08-18T22:35:45.007Z,99391.20
2018-08-18T22:38:13.550Z,99386.65
2018-08-18T22:40:41.875Z,99389.02
2018-08-18T22:43:10.339Z,99387.27
2018-08-18T22:45:38.642Z,99387.20
2018-08-18T22:48:07.728Z,99385.52
2018-08-18T22:50:36.195Z,99388.45
2018-08-18T22:53:04.563Z,99390.86
2018-08-18T22:55:32.825Z,99389.00
2018-08-18T22:58:02.874Z,99392.52
2018-08-18T23:00:33.933Z,99394.30
2018-08-18T23:03:02.246Z,99394.72
2018-08-18T23:05:30.531Z,99383.08
2018-08-18T23:07:58.950Z,99382.67
2018-08-18T23:10:30.713Z,99391.94
2018-08-18T23:12:59.527Z,99390.02
2018-08-18T23:15:27.832Z,99389.05
2018-08-18T23:17:56.279Z,99386.95
2018-08-18T23:20:24.722Z,99387.73
2018-08-18T23:22:59.965Z,99389.86
2018-08-18T23:25:31.615Z,99383.55
2018-08-18T23:28:00.095Z,99383.53
2018-08-18T23:30:36.839Z,99380.63
2018-08-18T23:33:07.211Z,99377.63
2018-08-18T23:35:35.931Z,99377.69
2018-08-18T23:38:04.438Z,99371.14
2018-08-18T23:40:32.824Z,99370.22
2018-08-18T23:43:01.157Z,99376.09
2018-08-18T23:45:38.638Z,99380.08
2018-08-18T23:48:10.006Z,99375.86
2018-08-18T23:50:39.419Z,99373.75
2018-08-18T23:53:11.747Z,99370.91
2018-08-18T23:55:44.997Z,99375.36
2018-08-18T23:58:13.738Z,99362.73
